Time;durP1;ratioP1;P1;durP2;ratioP2;P2;SDS_P1;SDS_P2;PMS_P1;PMS_P2;Temp;Humidity;BMP_temperature;BMP_pressure;BME280_temperature;BME280_humidity;BME280_pressure;Samples;Min_cycle;Max_cycle;Signal;HPM_P1;HPM_P2
2022/02/22 00:01:00;;;;;;;21.92;2.97;;;;;;;;;;4871670;29;20053;-87
2022/02/22 00:03:26;;;;;;;23.63;3.85;;;;;;;;;;4870293;29;20103;-89
2022/02/22 00:05:51;;;;;;;25.23;2.95;;;;;;;;;;4870062;29;20483;-86
2022/02/22 00:08:17;;;;;;;26.60;3.95;;;;;;;;;;4869219;29;20072;-86
2022/02/22 00:10:42;;;;;;;17.85;2.67;;;;;;;;;;4872672;29;20035;-88
2022/02/22 00:13:07;;;;;;;21.33;3.60;;;;;;;;;;4871839;29;20040;-86
2022/02/22 00:15:33;;;;;;;24.45;2.90;;;;;;;;;;4875856;29;20088;-89
2022/02/22 00:17:58;;;;;;;19.48;2.75;;;;;;;;;;4876072;29;20040;-85
2022/02/22 00:20:24;;;;;;;22.92;4.03;;;;;;;;;;4877973;29;20124;-86
2022/02/22 00:22:49;;;;;;;26.65;2.80;;;;;;;;;;4884395;29;20028;-89
2022/02/22 00:25:14;;;;;;;24.58;3.13;;;;;;;;;;4876491;29;20409;-86
2022/02/22 00:27:41;;;;;;;20.75;2.70;;;;;;;;;;4876024;29;20051;-88
2022/02/22 00:30:07;;;;;;;18.63;2.88;;;;;;;;;;4876644;29;20036;-86
2022/02/22 00:32:33;;;;;;;21.98;2.90;;;;;;;;;;4873617;29;20545;-86
2022/02/22 00:34:59;;;;;;;19.00;2.88;;;;;;;;;;4880229;29;20041;-89
2022/02/22 00:37:25;;;;;;;29.75;4.10;;;;;;;;;;4878709;29;20061;-86
2022/02/22 00:39:50;;;;;;;27.65;3.45;;;;;;;;;;4876843;29;20033;-89
2022/02/22 00:42:16;;;;;;;24.42;3.08;;;;;;;;;;4871076;29;20039;-86
2022/02/22 00:44:42;;;;;;;20.95;2.58;;;;;;;;;;4872625;29;20120;-86
2022/02/22 00:47:08;;;;;;;20.60;3.03;;;;;;;;;;4871459;29;20238;-87
2022/02/22 00:49:33;;;;;;;22.45;3.13;;;;;;;;;;4879666;29;20039;-86
2022/02/22 00:51:59;;;;;;;12.90;2.70;;;;;;;;;;4868008;29;20049;-88
2022/02/22 00:54:24;;;;;;;18.67;2.85;;;;;;;;;;4867212;29;20033;-90
2022/02/22 00:56:49;;;;;;;18.40;2.88;;;;;;;;;;4864129;29;20037;-89
2022/02/22 00:59:15;;;;;;;21.52;3.10;;;;;;;;;;4870730;29;20100;-86
2022/02/22 01:01:40;;;;;;;20.48;3.00;;;;;;;;;;4871569;29;20025;-88
2022/02/22 01:04:06;;;;;;;21.25;2.83;;;;;;;;;;4874018;29;20041;-85
2022/02/22 01:06:32;;;;;;;23.88;3.33;;;;;;;;;;4868830;29;20035;-88
2022/02/22 01:08:59;;;;;;;19.90;2.95;;;;;;;;;;4868254;29;20478;-86
2022/02/22 01:11:25;;;;;;;19.35;2.70;;;;;;;;;;4872120;29;20033;-87
2022/02/22 01:13:50;;;;;;;17.02;2.70;;;;;;;;;;4872864;29;20032;-86
2022/02/22 01:16:16;;;;;;;17.67;2.30;;;;;;;;;;4873522;29;20056;-87
2022/02/22 01:18:41;;;;;;;20.95;2.67;;;;;;;;;;4876797;29;20080;-89
2022/02/22 01:21:06;;;;;;;19.85;3.05;;;;;;;;;;4874841;29;20128;-89
2022/02/22 01:23:32;;;;;;;17.63;2.55;;;;;;;;;;4875512;29;20029;-86
2022/02/22 01:26:00;;;;;;;18.27;2.83;;;;;;;;;;4874995;29;20109;-90
2022/02/22 01:28:25;;;;;;;12.90;2.60;;;;;;;;;;4868758;29;20032;-85
2022/02/22 01:30:51;;;;;;;19.67;3.22;;;;;;;;;;4874185;29;20036;-88
2022/02/22 01:33:16;;;;;;;21.10;3.47;;;;;;;;;;4872826;29;20028;-86
2022/02/22 01:35:41;;;;;;;16.40;2.40;;;;;;;;;;4870715;29;20025;-87
2022/02/22 01:38:07;;;;;;;16.00;2.42;;;;;;;;;;4874863;29;20032;-86
2022/02/22 01:40:32;;;;;;;22.17;3.13;;;;;;;;;;4887217;29;20120;-86
2022/02/22 01:43:03;;;;;;;16.05;2.70;;;;;;;;;;4877353;29;20042;-86
2022/02/22 01:45:28;;;;;;;17.08;2.88;;;;;;;;;;4871149;29;20196;-89
2022/02/22 01:47:54;;;;;;;13.70;2.45;;;;;;;;;;4875350;29;20127;-89
2022/02/22 01:50:19;;;;;;;20.55;2.60;;;;;;;;;;4870599;29;20026;-89
2022/02/22 01:52:44;;;;;;;16.20;3.03;;;;;;;;;;4874929;29;20088;-90
2022/02/22 01:55:10;;;;;;;22.25;2.95;;;;;;;;;;4876379;29;20468;-86
2022/02/22 01:57:36;;;;;;;14.77;2.80;;;;;;;;;;4871616;29;20033;-85
2022/02/22 02:00:06;;;;;;;16.02;2.10;;;;;;;;;;4877830;29;20036;-87
2022/02/22 02:02:32;;;;;;;16.25;2.63;;;;;;;;;;4870223;29;20037;-86
2022/02/22 02:04:57;;;;;;;18.75;2.33;;;;;;;;;;4870599;29;20752;-86
2022/02/22 02:07:23;;;;;;;20.55;2.65;;;;;;;;;;4866691;29;20189;-90
2022/02/22 02:09:48;;;;;;;22.88;3.38;;;;;;;;;;4870004;29;20037;-87
2022/02/22 02:12:14;;;;;;;13.55;2.35;;;;;;;;;;4877182;29;20102;-89
2022/02/22 02:14:39;;;;;;;16.00;3.40;;;;;;;;;;4877136;29;20537;-90
2022/02/22 02:17:04;;;;;;;19.10;2.70;;;;;;;;;;4869520;29;20116;-90
2022/02/22 02:19:30;;;;;;;14.05;2.40;;;;;;;;;;4869018;29;20024;-87
2022/02/22 02:21:57;;;;;;;19.80;2.40;;;;;;;;;;4873988;29;20073;-89
2022/02/22 02:24:24;;;;;;;23.65;2.72;;;;;;;;;;4877367;29;20037;-86
2022/02/22 02:26:51;;;;;;;17.13;2.45;;;;;;;;;;4874249;29;20032;-89
2022/02/22 02:29:22;;;;;;;20.95;2.72;;;;;;;;;;4873695;29;21888;-90
2022/02/22 02:31:50;;;;;;;16.08;2.53;;;;;;;;;;4889198;29;20037;-85
2022/02/22 02:34:18;;;;;;;18.75;2.33;;;;;;;;;;4867719;29;20044;-90
2022/02/22 02:36:44;;;;;;;18.52;3.30;;;;;;;;;;4867528;29;20048;-89
2022/02/22 02:39:13;;;;;;;19.45;2.80;;;;;;;;;;4873565;29;20036;-87
2022/02/22 02:41:42;;;;;;;16.45;2.35;;;;;;;;;;4876810;29;20028;-91
2022/02/22 02:44:11;;;;;;;24.90;2.85;;;;;;;;;;4879027;29;20111;-89
2022/02/22 02:46:37;;;;;;;21.17;2.40;;;;;;;;;;4877715;29;20029;-89
2022/02/22 02:49:04;;;;;;;16.92;2.78;;;;;;;;;;4868954;29;20060;-87
2022/02/22 02:51:30;;;;;;;17.85;2.70;;;;;;;;;;4873674;29;20041;-87
2022/02/22 02:53:56;;;;;;;20.17;2.53;;;;;;;;;;4876257;29;20128;-86
2022/02/22 02:56:24;;;;;;;17.55;2.85;;;;;;;;;;4878709;29;20036;-90
2022/02/22 02:58:58;;;;;;;22.52;2.95;;;;;;;;;;4875225;29;20041;-91
2022/02/22 03:01:25;;;;;;;16.55;2.42;;;;;;;;;;4870101;29;20675;-90
2022/02/22 03:03:50;;;;;;;17.20;2.13;;;;;;;;;;4873512;29;20033;-87
2022/02/22 03:06:16;;;;;;;18.10;2.50;;;;;;;;;;4874076;29;20490;-89
2022/02/22 03:08:41;;;;;;;27.10;2.90;;;;;;;;;;4872791;29;20033;-88
2022/02/22 03:11:07;;;;;;;21.02;2.63;;;;;;;;;;4873114;29;20036;-90
2022/02/22 03:13:33;;;;;;;24.65;3.17;;;;;;;;;;4881354;29;20727;-91
2022/02/22 03:15:58;;;;;;;15.90;2.40;;;;;;;;;;4874838;29;20044;-90
2022/02/22 03:18:24;;;;;;;16.55;2.40;;;;;;;;;;4876449;29;20470;-86
2022/02/22 03:20:49;;;;;;;17.05;2.55;;;;;;;;;;4868700;29;20032;-86
2022/02/22 03:23:16;;;;;;;19.92;2.92;;;;;;;;;;4866981;29;20037;-89
2022/02/22 03:25:43;;;;;;;17.00;2.28;;;;;;;;;;4868719;29;20032;-86
2022/02/22 03:28:08;;;;;;;18.88;2.45;;;;;;;;;;4871163;29;20135;-91
2022/02/22 03:30:34;;;;;;;16.30;2.60;;;;;;;;;;4875091;29;20127;-86
2022/02/22 03:33:00;;;;;;;17.35;2.28;;;;;;;;;;4878781;29;20026;-89
2022/02/22 03:35:26;;;;;;;15.63;2.67;;;;;;;;;;4876592;29;20080;-90
2022/02/22 03:37:52;;;;;;;14.85;2.42;;;;;;;;;;4875543;29;20367;-89
2022/02/22 03:40:17;;;;;;;14.27;2.05;;;;;;;;;;4874872;29;20080;-86
2022/02/22 03:42:44;;;;;;;14.85;2.22;;;;;;;;;;4870411;29;20707;-87
2022/02/22 03:45:12;;;;;;;16.40;2.75;;;;;;;;;;4876347;29;20746;-89
2022/02/22 03:47:38;;;;;;;21.60;2.65;;;;;;;;;;4876448;29;20119;-90
2022/02/22 03:50:05;;;;;;;16.13;3.10;;;;;;;;;;4878720;29;20036;-89
2022/02/22 03:52:31;;;;;;;18.92;2.75;;;;;;;;;;4861176;29;20036;-86
2022/02/22 03:54:56;;;;;;;17.55;3.22;;;;;;;;;;4870529;29;20040;-90
2022/02/22 03:57:22;;;;;;;22.40;3.33;;;;;;;;;;4881866;29;20060;-89
2022/02/22 03:59:47;;;;;;;16.35;3.03;;;;;;;;;;4877593;29;20044;-87
2022/02/22 04:02:13;;;;;;;17.17;2.65;;;;;;;;;;4875926;29;20447;-87
2022/02/22 04:04:38;;;;;;;12.38;2.08;;;;;;;;;;4874482;29;20032;-85
2022/02/22 04:07:04;;;;;;;23.70;2.92;;;;;;;;;;4873779;29;20087;-89
2022/02/22 04:09:29;;;;;;;15.50;2.90;;;;;;;;;;4869205;29;20051;-87
2022/02/22 04:11:55;;;;;;;19.90;2.60;;;;;;;;;;4876440;29;20041;-90
2022/02/22 04:14:20;;;;;;;18.60;2.70;;;;;;;;;;4869648;29;20135;-90
2022/02/22 04:16:45;;;;;;;18.80;2.38;;;;;;;;;;4868549;29;20040;-90
2022/02/22 04:19:11;;;;;;;16.17;2.70;;;;;;;;;;4875731;29;20471;-86
2022/02/22 04:21:36;;;;;;;19.75;2.95;;;;;;;;;;4872560;29;20056;-85
2022/02/22 04:24:02;;;;;;;20.73;3.53;;;;;;;;;;4876668;29;20819;-87
2022/02/22 04:26:27;;;;;;;18.77;2.65;;;;;;;;;;4866072;29;20033;-86
2022/02/22 04:28:55;;;;;;;22.63;2.85;;;;;;;;;;4867360;29;20056;-90
2022/02/22 04:31:21;;;;;;;17.42;2.67;;;;;;;;;;4873571;29;20554;-89
2022/02/22 04:33:46;;;;;;;13.52;1.92;;;;;;;;;;4876789;29;20123;-85
2022/02/22 04:36:12;;;;;;;18.92;2.65;;;;;;;;;;4871978;29;20633;-86
2022/02/22 04:38:37;;;;;;;21.20;2.58;;;;;;;;;;4865992;29;20092;-89
2022/02/22 04:41:03;;;;;;;17.38;2.95;;;;;;;;;;4875462;29;20052;-90
2022/02/22 04:43:28;;;;;;;17.65;3.53;;;;;;;;;;4886582;29;20130;-90
2022/02/22 04:45:54;;;;;;;14.73;2.10;;;;;;;;;;4872743;29;20124;-90
2022/02/22 04:48:19;;;;;;;15.18;3.22;;;;;;;;;;4876168;29;20085;-89
2022/02/22 04:50:45;;;;;;;19.45;2.60;;;;;;;;;;4870858;29;20092;-86
2022/02/22 04:53:10;;;;;;;14.23;1.85;;;;;;;;;;4874965;29;20097;-90
2022/02/22 04:55:36;;;;;;;17.63;3.00;;;;;;;;;;4867964;29;20036;-89
2022/02/22 04:58:03;;;;;;;18.15;2.70;;;;;;;;;;4874370;29;20035;-86
2022/02/22 05:00:28;;;;;;;14.60;3.35;;;;;;;;;;4873122;29;20041;-87
2022/02/22 05:02:54;;;;;;;17.83;2.85;;;;;;;;;;4874402;29;20092;-89
2022/02/22 05:05:20;;;;;;;18.63;2.35;;;;;;;;;;4874307;29;20401;-87
2022/02/22 05:07:45;;;;;;;17.20;3.25;;;;;;;;;;4871569;29;20044;-86
2022/02/22 05:10:11;;;;;;;20.50;3.47;;;;;;;;;;4874209;29;20120;-89
2022/02/22 05:12:36;;;;;;;14.70;2.75;;;;;;;;;;4877971;29;20029;-90
2022/02/22 05:15:02;;;;;;;17.80;2.67;;;;;;;;;;4875675;29;20101;-91
2022/02/22 05:17:27;;;;;;;16.88;2.88;;;;;;;;;;4874767;29;20348;-86
2022/02/22 05:19:53;;;;;;;15.00;1.80;;;;;;;;;;4875639;29;20041;-86
2022/02/22 05:22:18;;;;;;;13.38;2.15;;;;;;;;;;4869738;29;20037;-86
2022/02/22 05:24:44;;;;;;;17.80;2.45;;;;;;;;;;4875522;29;20032;-86
2022/02/22 05:27:09;;;;;;;16.42;1.95;;;;;;;;;;4872276;29;20047;-86
2022/02/22 05:29:34;;;;;;;12.32;1.90;;;;;;;;;;4872280;29;20037;-89
2022/02/22 05:32:00;;;;;;;17.92;2.38;;;;;;;;;;4875603;29;20037;-86
2022/02/22 05:34:27;;;;;;;15.30;2.25;;;;;;;;;;4870707;29;20067;-87
2022/02/22 05:36:53;;;;;;;14.45;2.33;;;;;;;;;;4864920;29;20379;-87
2022/02/22 05:39:18;;;;;;;15.25;2.45;;;;;;;;;;4871143;29;20037;-87
2022/02/22 05:41:44;;;;;;;15.38;3.17;;;;;;;;;;4867851;29;20422;-87
2022/02/22 05:44:09;;;;;;;16.38;2.20;;;;;;;;;;4866125;29;20644;-90
2022/02/22 05:46:35;;;;;;;12.55;1.70;;;;;;;;;;4869838;29;20029;-90
2022/02/22 05:49:00;;;;;;;14.73;2.10;;;;;;;;;;4873761;29;20546;-90
2022/02/22 05:51:26;;;;;;;12.18;1.92;;;;;;;;;;4869896;29;20028;-89
2022/02/22 05:53:51;;;;;;;11.00;1.60;;;;;;;;;;4869308;29;20565;-85
2022/02/22 05:56:18;;;;;;;15.98;2.20;;;;;;;;;;4870896;29;20103;-86
2022/02/22 05:58:43;;;;;;;12.45;2.00;;;;;;;;;;4870467;29;20030;-89
2022/02/22 06:01:09;;;;;;;13.95;1.92;;;;;;;;;;4869079;29;20472;-90
2022/02/22 06:03:34;;;;;;;16.40;2.33;;;;;;;;;;4866942;29;20101;-89
2022/02/22 06:06:04;;;;;;;12.20;2.08;;;;;;;;;;4860484;29;20097;-85
2022/02/22 06:08:29;;;;;;;15.68;2.15;;;;;;;;;;4864880;29;20060;-86
2022/02/22 06:10:56;;;;;;;14.43;2.38;;;;;;;;;;4866542;29;20037;-88
2022/02/22 06:13:21;;;;;;;11.68;1.70;;;;;;;;;;4863691;29;20073;-89
2022/02/22 06:15:47;;;;;;;15.50;3.50;;;;;;;;;;4849747;29;20790;-89
2022/02/22 06:18:12;;;;;;;20.75;2.90;;;;;;;;;;4862956;29;20486;-85
2022/02/22 06:20:39;;;;;;;11.07;2.17;;;;;;;;;;4871642;29;20056;-89
2022/02/22 06:23:05;;;;;;;11.55;2.17;;;;;;;;;;4859768;29;20025;-85
2022/02/22 06:25:32;;;;;;;10.98;2.13;;;;;;;;;;4863749;29;20064;-89
2022/02/22 06:27:57;;;;;;;14.00;2.10;;;;;;;;;;4861224;29;20079;-86
2022/02/22 06:30:24;;;;;;;11.63;2.00;;;;;;;;;;4863427;29;20049;-85
2022/02/22 06:32:51;;;;;;;11.88;1.65;;;;;;;;;;4863712;29;20065;-89
2022/02/22 06:35:17;;;;;;;16.15;2.30;;;;;;;;;;4874372;29;20402;-86
2022/02/22 06:37:43;;;;;;;10.95;1.83;;;;;;;;;;4872129;29;20109;-87
2022/02/22 06:40:09;;;;;;;12.60;2.10;;;;;;;;;;4868561;29;20048;-85
2022/02/22 06:42:36;;;;;;;14.30;2.15;;;;;;;;;;4863682;29;20522;-87
2022/02/22 06:45:04;;;;;;;10.85;2.17;;;;;;;;;;4864366;29;20045;-87
2022/02/22 06:47:30;;;;;;;8.38;2.13;;;;;;;;;;4862944;29;20045;-85
2022/02/22 06:49:56;;;;;;;14.63;2.35;;;;;;;;;;4871324;29;20457;-87
2022/02/22 06:52:21;;;;;;;15.77;1.92;;;;;;;;;;4874026;29;20053;-86
2022/02/22 06:54:47;;;;;;;14.60;2.38;;;;;;;;;;4868218;29;20025;-89
2022/02/22 06:57:13;;;;;;;15.73;2.58;;;;;;;;;;4867897;29;20044;-87
2022/02/22 06:59:38;;;;;;;17.67;2.35;;;;;;;;;;4870584;29;20044;-89
2022/02/22 07:02:04;;;;;;;13.32;2.15;;;;;;;;;;4863344;29;20037;-86
2022/02/22 07:04:29;;;;;;;20.70;2.53;;;;;;;;;;4876186;29;20128;-89
2022/02/22 07:07:01;;;;;;;15.20;2.00;;;;;;;;;;4873382;29;20039;-90
2022/02/22 07:09:26;;;;;;;12.60;2.20;;;;;;;;;;4877927;29;20044;-85
2022/02/22 07:11:52;;;;;;;12.15;1.80;;;;;;;;;;4877901;29;20040;-84
2022/02/22 07:14:17;;;;;;;11.57;1.95;;;;;;;;;;4884758;29;20036;-86
2022/02/22 07:16:43;;;;;;;9.73;2.03;;;;;;;;;;4882870;29;20067;-85
2022/02/22 07:19:08;;;;;;;10.75;1.80;;;;;;;;;;4874955;29;20036;-88
2022/02/22 07:21:33;;;;;;;15.27;2.35;;;;;;;;;;4879025;29;20491;-86
2022/02/22 07:23:59;;;;;;;14.30;2.20;;;;;;;;;;4869368;29;20041;-88
2022/02/22 07:26:26;;;;;;;14.27;2.28;;;;;;;;;;4877503;29;20410;-86
2022/02/22 07:28:51;;;;;;;13.82;2.97;;;;;;;;;;4869951;29;20037;-88
2022/02/22 07:31:16;;;;;;;15.93;2.20;;;;;;;;;;4876733;29;20079;-89
2022/02/22 07:33:43;;;;;;;12.77;2.03;;;;;;;;;;4869891;29;20444;-86
2022/02/22 07:36:08;;;;;;;17.13;2.60;;;;;;;;;;4876524;29;20047;-85
2022/02/22 07:38:34;;;;;;;17.52;2.97;;;;;;;;;;4875607;29;20387;-88
2022/02/22 07:41:00;;;;;;;14.40;2.30;;;;;;;;;;4867682;29;20044;-89
2022/02/22 07:43:26;;;;;;;10.70;2.42;;;;;;;;;;4864453;29;20416;-86
2022/02/22 07:45:51;;;;;;;13.68;2.72;;;;;;;;;;4870590;29;20028;-89
2022/02/22 07:48:16;;;;;;;19.60;3.15;;;;;;;;;;4872473;29;20513;-87
2022/02/22 07:50:42;;;;;;;12.13;2.80;;;;;;;;;;4863884;29;20067;-86
2022/02/22 07:53:08;;;;;;;14.85;3.05;;;;;;;;;;4863846;29;20452;-86
2022/02/22 07:55:34;;;;;;;14.93;3.25;;;;;;;;;;4869264;29;20458;-85
2022/02/22 07:57:59;;;;;;;15.25;3.55;;;;;;;;;;4878750;29;20533;-86
2022/02/22 08:00:25;;;;;;;11.77;2.70;;;;;;;;;;4870847;29;20045;-88
2022/02/22 08:02:54;;;;;;;17.70;3.97;;;;;;;;;;4874143;29;20082;-88
2022/02/22 08:05:19;;;;;;;17.85;3.95;;;;;;;;;;4870460;29;20070;-85
2022/02/22 08:07:46;;;;;;;16.13;3.63;;;;;;;;;;4873092;29;20045;-87
2022/02/22 08:10:13;;;;;;;14.32;3.80;;;;;;;;;;4872792;29;20044;-87
2022/02/22 08:12:38;;;;;;;12.70;3.40;;;;;;;;;;4863345;29;20040;-87
2022/02/22 08:15:05;;;;;;;18.35;3.80;;;;;;;;;;4871404;29;20033;-89
2022/02/22 08:17:30;;;;;;;18.23;3.85;;;;;;;;;;4877325;29;20032;-88
2022/02/22 08:22:42;;;;;;;14.13;3.92;;;;;;;;;;4883331;29;20104;-86
2022/02/22 08:25:08;;;;;;;20.10;3.90;;;;;;;;;;4874367;29;20120;-86
2022/02/22 08:27:36;;;;;;;12.45;3.60;;;;;;;;;;4876519;29;20032;-87
2022/02/22 08:30:02;;;;;;;16.95;4.22;;;;;;;;;;4885854;29;20398;-88
2022/02/22 08:32:54;;;;;;;19.35;5.20;;;;;;;;;;4872275;29;20040;-91
2022/02/22 08:35:20;;;;;;;19.50;5.57;;;;;;;;;;4869712;29;20370;-86
2022/02/22 08:37:46;;;;;;;17.27;3.88;;;;;;;;;;4874186;29;20060;-88
2022/02/22 08:40:11;;;;;;;17.60;4.38;;;;;;;;;;4883336;29;20039;-88
2022/02/22 08:42:51;;;;;;;20.50;5.50;;;;;;;;;;4877115;29;20029;-86
2022/02/22 08:45:17;;;;;;;16.85;4.45;;;;;;;;;;4874100;29;20095;-87
2022/02/22 08:47:43;;;;;;;20.52;5.63;;;;;;;;;;4871983;29;20024;-88
2022/02/22 08:50:09;;;;;;;21.95;5.07;;;;;;;;;;4877382;29;20035;-88
2022/02/22 08:52:35;;;;;;;20.17;4.75;;;;;;;;;;4875519;29;20052;-87
2022/02/22 08:55:03;;;;;;;21.42;5.90;;;;;;;;;;4874015;29;20441;-87
2022/02/22 08:57:29;;;;;;;20.48;4.97;;;;;;;;;;4871890;29;20036;-88
2022/02/22 08:59:54;;;;;;;24.83;5.25;;;;;;;;;;4869435;29;20029;-87
2022/02/22 09:02:19;;;;;;;15.70;5.43;;;;;;;;;;4869897;29;20082;-86
2022/02/22 09:04:45;;;;;;;18.98;4.72;;;;;;;;;;4873078;29;20124;-88
2022/02/22 09:07:10;;;;;;;23.13;5.50;;;;;;;;;;4871120;29;20499;-88
2022/02/22 09:09:36;;;;;;;18.50;5.15;;;;;;;;;;4874238;29;20029;-88
2022/02/22 09:12:02;;;;;;;17.27;5.30;;;;;;;;;;4878926;29;20067;-86
2022/02/22 09:14:27;;;;;;;17.55;4.65;;;;;;;;;;4880931;29;21056;-86
2022/02/22 09:16:53;;;;;;;18.10;4.63;;;;;;;;;;4875777;29;20041;-86
2022/02/22 09:19:18;;;;;;;18.55;4.65;;;;;;;;;;4878791;29;20051;-88
2022/02/22 09:21:44;;;;;;;13.73;5.03;;;;;;;;;;4872269;29;20430;-86
2022/02/22 09:24:09;;;;;;;19.65;4.93;;;;;;;;;;4879977;29;20120;-86
2022/02/22 09:26:36;;;;;;;19.50;4.88;;;;;;;;;;4881317;29;20081;-87
2022/02/22 09:29:01;;;;;;;21.33;5.55;;;;;;;;;;4867421;29;20043;-88
2022/02/22 09:31:27;;;;;;;26.92;5.40;;;;;;;;;;4873005;29;20486;-88
2022/02/22 09:33:52;;;;;;;21.38;4.65;;;;;;;;;;4863811;29;20469;-88
2022/02/22 09:36:18;;;;;;;27.40;4.90;;;;;;;;;;4869587;29;20107;-89
2022/02/22 09:38:44;;;;;;;17.95;4.00;;;;;;;;;;4878683;29;20420;-87
2022/02/22 09:41:10;;;;;;;19.48;4.85;;;;;;;;;;4873875;29;20028;-88
2022/02/22 09:43:38;;;;;;;15.63;4.40;;;;;;;;;;4869775;29;20584;-87
2022/02/22 09:46:09;;;;;;;17.63;3.90;;;;;;;;;;4883218;29;20037;-88
2022/02/22 09:48:34;;;;;;;18.65;4.10;;;;;;;;;;4875762;29;20041;-88
2022/02/22 09:51:03;;;;;;;23.10;4.68;;;;;;;;;;4875263;29;20057;-88
2022/02/22 09:53:39;;;;;;;23.50;4.57;;;;;;;;;;4877224;29;20132;-88
2022/02/22 09:56:05;;;;;;;19.73;3.58;;;;;;;;;;4873801;29;20037;-88
2022/02/22 09:58:34;;;;;;;17.02;3.63;;;;;;;;;;4873958;29;20042;-87
2022/02/22 10:01:09;;;;;;;18.00;4.15;;;;;;;;;;4876243;29;20033;-88
2022/02/22 10:04:07;;;;;;;16.95;3.90;;;;;;;;;;4876663;29;20100;-88
2022/02/22 10:06:36;;;;;;;15.32;3.47;;;;;;;;;;4881348;29;20044;-88
2022/02/22 10:09:21;;;;;;;;;;;;;;;;;;;;;
2022/02/22 10:12:06;;;;;;;18.10;3.47;;;;;;;;;;4878350;29;20349;-86
2022/02/22 10:14:38;;;;;;;20.73;3.30;;;;;;;;;;4866498;29;20033;-88
2022/02/22 10:17:06;;;;;;;19.40;3.75;;;;;;;;;;4870043;29;20029;-88
2022/02/22 10:19:38;;;;;;;19.40;3.88;;;;;;;;;;4871684;29;20047;-86
2022/02/22 10:25:10;;;;;;;16.13;3.77;;;;;;;;;;4869289;29;20067;-90
2022/02/22 10:28:08;;;;;;;14.98;3.10;;;;;;;;;;4878263;29;20124;-88
2022/02/22 10:30:43;;;;;;;21.95;3.97;;;;;;;;;;4869932;29;20025;-88
2022/02/22 10:37:10;;;;;;;22.27;3.88;;;;;;;;;;4835887;29;20609;-89
2022/02/22 10:39:41;;;;;;;22.65;3.08;;;;;;;;;;4820368;29;20439;-86
2022/02/22 10:42:13;;;;;;;19.02;4.05;;;;;;;;;;4833566;29;20034;-87
2022/02/22 10:44:41;;;;;;;17.98;3.78;;;;;;;;;;4829736;29;20201;-86
2022/02/22 10:47:43;;;;;;;26.88;3.53;;;;;;;;;;4819959;29;20117;-86
2022/02/22 10:50:15;;;;;;;22.00;3.45;;;;;;;;;;4808148;29;20046;-86
2022/02/22 10:52:43;;;;;;;16.90;3.58;;;;;;;;;;4799483;29;20046;-88
2022/02/22 10:55:15;;;;;;;22.67;4.68;;;;;;;;;;4814067;29;20046;-86
2022/02/22 10:57:55;;;;;;;;;;;;;;;;;;;;;
2022/02/22 11:00:44;;;;;;;19.65;3.28;;;;;;;;;;4830356;29;20033;-90
2022/02/22 11:03:15;;;;;;;20.20;4.07;;;;;;;;;;4803310;29;20043;-86
2022/02/22 11:05:51;;;;;;;21.80;4.68;;;;;;;;;;4800610;29;20046;-88
2022/02/22 11:08:49;;;;;;;23.38;4.60;;;;;;;;;;4792732;29;20088;-89
2022/02/22 11:11:47;;;;;;;24.70;4.78;;;;;;;;;;4772869;29;20405;-88
2022/02/22 11:17:00;;;;;;;;;;;;;;;;;;;;;
2022/02/22 11:19:50;;;;;;;24.48;5.43;;;;;;;;;;4881533;29;20036;-89
2022/02/22 11:22:23;;;;;;;20.13;4.38;;;;;;;;;;4879864;29;20044;-88
2022/02/22 11:25:17;;;;;;;26.45;4.97;;;;;;;;;;4878881;29;20037;-88
2022/02/22 11:28:20;;;;;;;26.48;5.20;;;;;;;;;;4894420;29;20702;-86
2022/02/22 11:30:48;;;;;;;22.83;4.63;;;;;;;;;;4903609;29;20481;-89
2022/02/22 11:33:20;;;;;;;17.88;4.80;;;;;;;;;;4876518;29;20069;-85
2022/02/22 11:38:52;;;;;;;22.23;4.90;;;;;;;;;;4879776;29;20044;-88
2022/02/22 11:41:25;;;;;;;27.15;6.07;;;;;;;;;;4882124;29;20029;-89
2022/02/22 11:44:33;;;;;;;;;;;;;;;;;;;;;
2022/02/22 11:47:24;;;;;;;27.92;5.97;;;;;;;;;;4880254;29;20556;-85
2022/02/22 11:49:54;;;;;;;19.15;5.40;;;;;;;;;;4893684;29;20033;-87
2022/02/22 11:52:53;;;;;;;27.90;6.22;;;;;;;;;;4881031;29;20557;-87
2022/02/22 11:55:26;;;;;;;26.30;6.57;;;;;;;;;;4878906;29;20430;-90
2022/02/22 11:57:54;;;;;;;28.42;7.57;;;;;;;;;;4899250;29;20080;-90
2022/02/22 12:00:56;;;;;;;25.58;7.03;;;;;;;;;;4884008;29;20144;-86
2022/02/22 12:03:24;;;;;;;23.45;7.07;;;;;;;;;;4874717;29;20673;-89
2022/02/22 12:05:59;;;;;;;26.05;6.43;;;;;;;;;;4874747;29;20042;-90
2022/02/22 12:08:28;;;;;;;25.42;7.75;;;;;;;;;;4884407;29;20105;-87
2022/02/22 12:10:59;;;;;;;23.75;6.88;;;;;;;;;;4882018;29;20052;-88
2022/02/22 12:13:58;;;;;;;22.67;7.55;;;;;;;;;;4882515;29;20116;-90
2022/02/22 12:23:29;;;;;;;29.90;8.13;;;;;;;;;;825840;23;20337;-83
2022/02/22 12:26:05;;;;;;;21.08;7.45;;;;;;;;;;4885936;29;20049;-89
2022/02/22 12:28:30;;;;;;;21.15;8.10;;;;;;;;;;4889279;29;20035;-88
2022/02/22 12:30:59;;;;;;;26.92;8.25;;;;;;;;;;4884717;29;20033;-87
2022/02/22 12:33:31;;;;;;;26.38;8.80;;;;;;;;;;4881520;29;20025;-85
2022/02/22 12:36:46;;;;;;;;;;;;;;;;;;;;;
2022/02/22 12:39:32;;;;;;;23.40;8.82;;;;;;;;;;4886031;29;20029;-89
2022/02/22 12:42:02;;;;;;;27.17;9.48;;;;;;;;;;4885857;29;20482;-86
2022/02/22 12:44:30;;;;;;;25.95;9.23;;;;;;;;;;4897918;29;20033;-85
2022/02/22 12:47:02;;;;;;;25.50;8.98;;;;;;;;;;4897683;29;20029;-87
2022/02/22 12:49:34;;;;;;;29.13;9.65;;;;;;;;;;4900404;29;20032;-89
2022/02/22 12:52:07;;;;;;;23.77;9.18;;;;;;;;;;4884564;29;20033;-86
2022/02/22 12:54:34;;;;;;;28.08;9.82;;;;;;;;;;4863327;29;20051;-88
2022/02/22 12:57:04;;;;;;;23.90;8.25;;;;;;;;;;4846783;29;20090;-90
2022/02/22 13:03:33;;;;;;;29.48;8.73;;;;;;;;;;4862479;29;20339;-90
2022/02/22 13:06:04;;;;;;;28.67;8.50;;;;;;;;;;4859629;29;20076;-85
2022/02/22 13:08:36;;;;;;;28.38;8.57;;;;;;;;;;4849479;29;20025;-91
2022/02/22 13:11:08;;;;;;;33.67;8.98;;;;;;;;;;4850748;29;20033;-85
2022/02/22 13:13:36;;;;;;;24.92;9.73;;;;;;;;;;4867528;29;20033;-89
2022/02/22 13:25:17;;;;;;;24.90;9.18;;;;;;;;;;4829549;29;20454;-85
2022/02/22 13:28:08;;;;;;;23.63;8.77;;;;;;;;;;4858805;29;20045;-85
2022/02/22 13:30:40;;;;;;;27.08;8.32;;;;;;;;;;4879094;29;20155;-85
2022/02/22 13:33:11;;;;;;;23.05;8.13;;;;;;;;;;4860801;29;20037;-85
2022/02/22 13:35:42;;;;;;;23.67;8.30;;;;;;;;;;4862765;29;20041;-89
2022/02/22 13:41:12;;;;;;;;;;;;;;;;;;4832273;29;20045;-89
2022/02/22 13:43:41;;;;;;;25.17;7.88;;;;;;;;;;4857549;29;19985;-88
2022/02/22 13:46:12;;;;;;;28.58;8.00;;;;;;;;;;4865680;29;20033;-89
2022/02/22 13:48:40;;;;;;;19.92;7.53;;;;;;;;;;4844148;29;20048;-88
2022/02/22 13:51:12;;;;;;;18.80;7.63;;;;;;;;;;4851327;29;20093;-88
2022/02/22 13:53:43;;;;;;;26.65;7.78;;;;;;;;;;4852615;29;20039;-85
2022/02/22 13:56:12;;;;;;;17.05;7.07;;;;;;;;;;4858581;29;20048;-89
2022/02/22 13:58:43;;;;;;;22.60;7.22;;;;;;;;;;4852552;29;20044;-85
2022/02/22 14:01:20;;;;;;;23.75;8.82;;;;;;;;;;4864566;29;20037;-86
2022/02/22 14:03:45;;;;;;;19.52;6.97;;;;;;;;;;4856397;29;20049;-86
2022/02/22 14:06:13;;;;;;;19.92;7.25;;;;;;;;;;4885406;29;20027;-89
2022/02/22 14:08:47;;;;;;;22.02;6.60;;;;;;;;;;4870105;29;20034;-86
2022/02/22 14:11:15;;;;;;;21.65;7.30;;;;;;;;;;4859918;29;20041;-88
2022/02/22 14:13:46;;;;;;;15.55;6.70;;;;;;;;;;4878478;29;20072;-90
2022/02/22 14:16:18;;;;;;;17.85;6.72;;;;;;;;;;4883955;29;20083;-88
2022/02/22 14:18:47;;;;;;;18.07;6.60;;;;;;;;;;4861358;29;20474;-85
2022/02/22 14:21:18;;;;;;;17.65;6.55;;;;;;;;;;4872220;29;20310;-86
2022/02/22 14:23:47;;;;;;;19.05;6.93;;;;;;;;;;4860151;29;20043;-84
2022/02/22 14:26:18;;;;;;;23.17;7.03;;;;;;;;;;4874617;29;20037;-85
2022/02/22 14:28:47;;;;;;;21.60;7.10;;;;;;;;;;4865092;29;20056;-85
2022/02/22 14:31:19;;;;;;;20.13;7.10;;;;;;;;;;4869414;29;20065;-89
2022/02/22 14:33:51;;;;;;;20.05;7.40;;;;;;;;;;4862532;29;20037;-88
2022/02/22 14:36:23;;;;;;;18.23;7.60;;;;;;;;;;4873842;29;20553;-89
2022/02/22 14:38:49;;;;;;;18.98;7.18;;;;;;;;;;4881023;29;20479;-84
2022/02/22 14:41:20;;;;;;;16.95;7.03;;;;;;;;;;4868276;29;20040;-85
2022/02/22 14:43:53;;;;;;;22.25;6.43;;;;;;;;;;4877864;29;20033;-86
2022/02/22 14:46:22;;;;;;;17.75;7.15;;;;;;;;;;4860462;29;20032;-85
2022/02/22 14:48:55;;;;;;;18.27;6.82;;;;;;;;;;4869119;29;20063;-85
2022/02/22 14:51:24;;;;;;;18.27;7.20;;;;;;;;;;4861135;29;20088;-87
2022/02/22 14:53:51;;;;;;;17.85;6.30;;;;;;;;;;4883193;29;20510;-87
2022/02/22 14:56:23;;;;;;;16.92;6.53;;;;;;;;;;4867160;29;20028;-89
2022/02/22 14:58:52;;;;;;;16.85;6.60;;;;;;;;;;4884398;29;20580;-89
2022/02/22 15:01:23;;;;;;;19.02;5.70;;;;;;;;;;4877342;29;20502;-90
2022/02/22 15:03:55;;;;;;;18.88;6.18;;;;;;;;;;4871022;29;20116;-90
2022/02/22 15:06:24;;;;;;;19.63;7.03;;;;;;;;;;4856384;29;20033;-86
2022/02/22 15:08:57;;;;;;;20.27;7.38;;;;;;;;;;4883692;29;20036;-90
2022/02/22 15:11:26;;;;;;;18.40;5.85;;;;;;;;;;4865906;29;20027;-85
2022/02/22 15:13:54;;;;;;;14.90;6.18;;;;;;;;;;4869452;29;20029;-85
2022/02/22 15:16:26;;;;;;;20.35;5.75;;;;;;;;;;4863420;29;20069;-85
2022/02/22 15:18:57;;;;;;;19.20;5.70;;;;;;;;;;4860316;29;20041;-89
2022/02/22 15:21:26;;;;;;;19.30;5.93;;;;;;;;;;4860564;29;20033;-88
2022/02/22 15:23:58;;;;;;;20.08;6.38;;;;;;;;;;4880938;29;20051;-85